Time;durP1;ratioP1;P1;durP2;ratioP2;P2;SDS_P1;SDS_P2;PMS_P1;PMS_P2;Temp;Humidity;BMP_temperature;BMP_pressure;BME280_temperature;BME280_humidity;BME280_pressure;Samples;Min_cycle;Max_cycle;Signal;HPM_P1;HPM_P2
2023/07/09 00:02:01;;;;;;;6.65;4.60;;;24.30;62.10;;;;;;5050900;28;20041;-60
2023/07/09 00:04:28;;;;;;;6.72;4.80;;;24.30;62.10;;;;;;5051307;28;20063;-60
2023/07/09 00:06:54;;;;;;;6.00;4.05;;;24.30;62.10;;;;;;5052099;28;20124;-60
2023/07/09 00:09:21;;;;;;;8.45;5.10;;;24.30;62.10;;;;;;5051190;28;20477;-60
2023/07/09 00:11:46;;;;;;;7.72;4.68;;;24.30;62.10;;;;;;5052251;28;20045;-60
2023/07/09 00:14:13;;;;;;;8.68;4.80;;;24.30;62.10;;;;;;5051605;28;20104;-60
2023/07/09 00:16:39;;;;;;;8.77;4.95;;;24.30;62.10;;;;;;5051953;28;20135;-60
2023/07/09 00:19:11;;;;;;;7.97;4.90;;;24.30;62.10;;;;;;5051161;28;20091;-60
2023/07/09 00:21:36;;;;;;;9.02;4.95;;;24.30;62.00;;;;;;5051802;28;20115;-60
2023/07/09 00:24:04;;;;;;;7.45;4.50;;;24.30;62.00;;;;;;5051948;28;20507;-60
2023/07/09 00:26:32;;;;;;;7.70;4.88;;;24.30;62.00;;;;;;5052585;28;20484;-60
2023/07/09 00:28:58;;;;;;;8.65;4.80;;;24.30;62.00;;;;;;5052688;28;20033;-60
2023/07/09 00:31:24;;;;;;;7.72;4.95;;;24.30;62.00;;;;;;5051885;28;20048;-60
2023/07/09 00:33:49;;;;;;;7.97;5.35;;;24.30;62.00;;;;;;5051900;28;20451;-60
2023/07/09 00:36:26;;;;;;;8.48;5.00;;;24.30;62.00;;;;;;5052500;28;20045;-60
2023/07/09 00:38:52;;;;;;;6.47;4.70;;;24.30;61.90;;;;;;5050442;28;20450;-60
2023/07/09 00:41:19;;;;;;;6.57;5.03;;;24.30;61.90;;;;;;5052527;28;20492;-60
2023/07/09 00:43:45;;;;;;;10.50;5.13;;;24.30;62.00;;;;;;5052544;28;20519;-60
2023/07/09 00:46:20;;;;;;;9.02;5.13;;;24.30;61.90;;;;;;5051422;28;20086;-60
2023/07/09 00:48:57;;;;;;;7.28;5.15;;;24.20;61.90;;;;;;5052553;28;20044;-60
2023/07/09 00:51:23;;;;;;;7.50;4.90;;;24.20;61.90;;;;;;5051816;28;20491;-60
2023/07/09 00:53:51;;;;;;;7.47;5.10;;;24.30;61.90;;;;;;5050864;28;20052;-60
2023/07/09 00:56:20;;;;;;;;;;;24.20;61.80;;;;;;5051732;28;20056;-60
2023/07/09 00:58:47;;;;;;;7.65;4.72;;;24.20;61.80;;;;;;5050626;28;20482;-60
2023/07/09 01:01:15;;;;;;;6.97;4.90;;;24.20;61.90;;;;;;5051424;28;20400;-60
2023/07/09 01:03:45;;;;;;;;;;;24.20;61.80;;;;;;5051814;28;20041;-61
2023/07/09 01:06:10;;;;;;;6.85;4.93;;;24.20;61.80;;;;;;5049928;28;19921;-60
2023/07/09 01:08:38;;;;;;;7.72;5.30;;;24.20;61.90;;;;;;5051154;28;20056;-61
2023/07/09 01:11:03;;;;;;;7.35;4.53;;;24.20;61.80;;;;;;5050505;28;20397;-60
2023/07/09 01:13:29;;;;;;;7.05;4.97;;;24.20;61.80;;;;;;5051737;28;20491;-60
2023/07/09 01:15:55;;;;;;;7.00;4.78;;;24.20;61.80;;;;;;5054203;28;20488;-61
2023/07/09 01:18:21;;;;;;;8.25;5.07;;;24.20;61.80;;;;;;5056356;28;20139;-60
2023/07/09 01:20:47;;;;;;;9.20;5.13;;;24.20;61.80;;;;;;5055019;28;20041;-60
2023/07/09 01:23:12;;;;;;;7.70;5.30;;;24.20;61.70;;;;;;5054550;28;20392;-60
2023/07/09 01:25:42;;;;;;;8.18;5.22;;;24.20;61.70;;;;;;5055622;28;20071;-60
2023/07/09 01:28:08;;;;;;;6.45;4.63;;;24.20;61.70;;;;;;5037264;28;20404;-60
2023/07/09 01:30:38;;;;;;;7.22;5.38;;;24.20;61.70;;;;;;5056084;28;20477;-60
2023/07/09 01:33:06;;;;;;;7.57;5.13;;;24.20;61.70;;;;;;5055339;28;20493;-60
2023/07/09 01:35:32;;;;;;;7.32;5.28;;;24.20;61.60;;;;;;5055110;28;20080;-60
2023/07/09 01:37:58;;;;;;;6.95;4.90;;;24.20;61.60;;;;;;5055560;28;20037;-60
2023/07/09 01:40:24;;;;;;;7.47;5.15;;;24.20;61.60;;;;;;5054328;28;20504;-60
2023/07/09 01:42:51;;;;;;;7.20;5.30;;;24.20;61.60;;;;;;5054487;28;20049;-60
2023/07/09 01:45:16;;;;;;;7.07;4.88;;;24.20;61.60;;;;;;5056015;28;20055;-61
2023/07/09 01:47:43;;;;;;;7.68;5.07;;;24.20;61.60;;;;;;5055155;28;20037;-60
2023/07/09 01:50:09;;;;;;;7.65;5.10;;;24.20;61.60;;;;;;5054829;28;20045;-60
2023/07/09 01:52:37;;;;;;;8.25;5.05;;;24.20;61.50;;;;;;5055631;28;20039;-60
2023/07/09 01:55:03;;;;;;;8.35;4.95;;;24.20;61.50;;;;;;5053291;28;20044;-60
2023/07/09 01:57:33;;;;;;;7.45;5.05;;;24.20;61.50;;;;;;5055940;28;20049;-60
2023/07/09 01:59:59;;;;;;;7.40;4.97;;;24.20;61.40;;;;;;5055313;28;20044;-60
2023/07/09 02:02:25;;;;;;;7.18;4.78;;;24.20;61.50;;;;;;5054690;28;20124;-60
2023/07/09 02:04:55;;;;;;;7.15;4.82;;;24.20;61.40;;;;;;5053021;28;20120;-60
2023/07/09 02:07:21;;;;;;;7.90;5.72;;;24.20;61.40;;;;;;5055120;28;20119;-60
2023/07/09 02:09:46;;;;;;;8.23;5.50;;;24.20;61.40;;;;;;5054207;28;20033;-59
2023/07/09 02:12:12;;;;;;;8.73;5.55;;;24.20;61.40;;;;;;5055640;28;20041;-59
2023/07/09 02:14:38;;;;;;;7.65;5.18;;;24.20;61.40;;;;;;5055368;28;20044;-60
2023/07/09 02:17:04;;;;;;;7.40;5.07;;;24.20;61.40;;;;;;5053945;28;20049;-60
2023/07/09 02:19:29;;;;;;;6.88;4.97;;;24.20;61.30;;;;;;5054878;28;20041;-59
2023/07/09 02:21:56;;;;;;;7.03;5.55;;;24.20;61.30;;;;;;5054934;28;20045;-60
2023/07/09 02:24:24;;;;;;;7.22;4.82;;;24.20;61.30;;;;;;5054137;28;20183;-60
2023/07/09 02:26:54;;;;;;;8.48;5.00;;;24.20;61.30;;;;;;5053585;28;20405;-60
2023/07/09 02:29:20;;;;;;;7.43;5.65;;;24.20;61.30;;;;;;5054842;28;20388;-60
2023/07/09 02:31:45;;;;;;;7.18;5.20;;;24.10;61.30;;;;;;5054214;28;20487;-60
2023/07/09 02:34:11;;;;;;;7.68;5.00;;;24.10;61.20;;;;;;5052485;28;20053;-60
2023/07/09 02:36:37;;;;;;;6.57;4.97;;;24.10;61.20;;;;;;5054814;28;20061;-60
2023/07/09 02:39:03;;;;;;;8.05;5.30;;;24.20;61.30;;;;;;5053719;28;20037;-59
2023/07/09 02:41:28;;;;;;;7.35;5.20;;;24.10;61.20;;;;;;5055004;28;20041;-60
2023/07/09 02:43:54;;;;;;;7.82;5.20;;;24.10;61.20;;;;;;5052365;28;20057;-60
2023/07/09 02:46:19;;;;;;;7.50;5.60;;;24.10;61.20;;;;;;5054805;28;20036;-60
2023/07/09 02:48:45;;;;;;;6.50;5.28;;;24.10;61.20;;;;;;5054446;28;20045;-59
2023/07/09 02:51:10;;;;;;;7.20;5.07;;;24.10;61.20;;;;;;5052835;28;20110;-60
2023/07/09 02:53:36;;;;;;;7.15;5.40;;;24.10;61.20;;;;;;5054813;28;20047;-59
2023/07/09 02:56:02;;;;;;;7.70;5.43;;;24.10;61.20;;;;;;5054140;28;20059;-59
2023/07/09 02:58:27;;;;;;;7.40;5.20;;;24.10;61.20;;;;;;5053875;28;20045;-60
2023/07/09 03:00:53;;;;;;;8.23;5.50;;;24.10;61.10;;;;;;5054171;28;20479;-59
2023/07/09 03:03:19;;;;;;;6.32;4.72;;;24.10;61.10;;;;;;5053817;28;20044;-59
2023/07/09 03:05:48;;;;;;;7.22;5.28;;;24.10;61.10;;;;;;5053147;28;20037;-59
2023/07/09 03:08:14;;;;;;;8.95;5.80;;;24.10;61.10;;;;;;5053939;28;20400;-59
2023/07/09 03:10:40;;;;;;;7.25;5.25;;;24.10;61.10;;;;;;5053370;28;20045;-60
2023/07/09 03:13:05;;;;;;;6.88;5.07;;;24.10;61.70;;;;;;5053036;28;20044;-60
2023/07/09 03:15:31;;;;;;;7.63;5.60;;;24.10;61.10;;;;;;5054174;28;20079;-59
2023/07/09 03:17:57;;;;;;;8.05;5.80;;;24.10;61.10;;;;;;5053717;28;20044;-60
2023/07/09 03:20:22;;;;;;;7.93;5.50;;;24.10;61.10;;;;;;5053249;28;20048;-60
2023/07/09 03:22:48;;;;;;;7.70;5.50;;;24.10;61.10;;;;;;5053903;28;20040;-59
2023/07/09 03:25:14;;;;;;;7.22;5.38;;;24.10;61.10;;;;;;5053572;28;20044;-60
2023/07/09 03:27:39;;;;;;;7.82;5.47;;;24.10;61.10;;;;;;5051772;28;20043;-60
2023/07/09 03:30:05;;;;;;;6.75;5.22;;;24.00;61.00;;;;;;5053708;28;20041;-60
2023/07/09 03:32:31;;;;;;;7.30;5.55;;;24.10;61.10;;;;;;5053670;28;20068;-60
2023/07/09 03:34:57;;;;;;;8.07;5.13;;;24.10;61.10;;;;;;5052175;28;20481;-60
2023/07/09 03:37:22;;;;;;;7.32;5.70;;;24.00;61.00;;;;;;5053158;28;20052;-60
2023/07/09 03:39:48;;;;;;;9.45;5.35;;;24.00;61.00;;;;;;5052912;28;20033;-60
2023/07/09 03:42:13;;;;;;;7.80;5.22;;;24.00;61.00;;;;;;5053027;28;20114;-60
2023/07/09 03:44:40;;;;;;;7.00;5.50;;;24.00;61.00;;;;;;5053508;28;20041;-60
2023/07/09 03:47:06;;;;;;;8.32;5.55;;;24.00;61.00;;;;;;5052433;28;20051;-60
2023/07/09 03:49:32;;;;;;;8.70;5.50;;;24.00;61.00;;;;;;5051886;28;20141;-59
2023/07/09 03:51:57;;;;;;;8.45;5.78;;;24.00;61.00;;;;;;5053180;28;20044;-60
2023/07/09 03:54:23;;;;;;;8.63;4.93;;;24.00;61.00;;;;;;5052636;28;20468;-60
2023/07/09 03:56:49;;;;;;;8.27;5.40;;;24.00;61.00;;;;;;5053088;28;20049;-60
2023/07/09 03:59:14;;;;;;;8.13;5.72;;;24.00;61.00;;;;;;5053168;28;20045;-60
2023/07/09 04:01:45;;;;;;;7.70;5.20;;;24.00;61.00;;;;;;5051022;28;20037;-59
2023/07/09 04:04:12;;;;;;;7.75;5.40;;;24.00;61.00;;;;;;5040011;28;20488;-60
2023/07/09 04:06:38;;;;;;;9.20;6.00;;;24.00;61.10;;;;;;5032283;28;20477;-60
2023/07/09 04:09:04;;;;;;;8.02;5.65;;;24.00;61.00;;;;;;5031880;28;20528;-60
2023/07/09 04:11:29;;;;;;;7.95;5.65;;;24.00;61.00;;;;;;5033478;28;20041;-60
2023/07/09 04:13:55;;;;;;;7.28;5.55;;;24.00;61.00;;;;;;5032953;28;20052;-60
2023/07/09 04:16:20;;;;;;;8.23;5.63;;;24.00;61.00;;;;;;5032352;28;20049;-60
2023/07/09 04:18:46;;;;;;;8.25;5.43;;;24.00;61.00;;;;;;5032910;28;20045;-60
2023/07/09 04:21:12;;;;;;;7.97;5.32;;;24.00;61.00;;;;;;5032837;28;20052;-60
2023/07/09 04:23:37;;;;;;;8.48;5.50;;;24.00;61.00;;;;;;5032292;28;20034;-60
2023/07/09 04:26:03;;;;;;;6.97;5.35;;;24.00;61.00;;;;;;5032761;28;20042;-60
2023/07/09 04:28:30;;;;;;;7.22;5.40;;;24.00;61.00;;;;;;5032883;28;20054;-59
2023/07/09 04:30:56;;;;;;;8.18;5.88;;;24.00;61.00;;;;;;5030974;28;20420;-60
2023/07/09 04:33:21;;;;;;;9.57;5.93;;;24.00;61.10;;;;;;5032468;28;20060;-60
2023/07/09 04:35:47;;;;;;;7.50;5.57;;;24.00;61.10;;;;;;5032300;28;20038;-60
2023/07/09 04:38:13;;;;;;;7.45;5.35;;;24.00;61.10;;;;;;5032177;28;20037;-60
2023/07/09 04:40:39;;;;;;;7.45;5.57;;;24.00;61.10;;;;;;5032859;28;20037;-60
2023/07/09 04:43:04;;;;;;;8.70;5.72;;;24.00;61.10;;;;;;5032530;28;20037;-60
2023/07/09 04:45:30;;;;;;;7.40;5.38;;;24.00;61.10;;;;;;5032017;28;20392;-60
2023/07/09 04:47:55;;;;;;;7.45;5.68;;;24.00;61.10;;;;;;5032358;28;20041;-60
2023/07/09 04:50:21;;;;;;;7.20;5.20;;;24.00;61.10;;;;;;5031133;28;20042;-60
2023/07/09 04:52:47;;;;;;;9.63;5.88;;;24.00;61.10;;;;;;5032607;28;20038;-59
2023/07/09 04:55:13;;;;;;;8.02;5.80;;;24.00;61.10;;;;;;5032185;28;20396;-59
2023/07/09 04:57:39;;;;;;;9.60;6.22;;;24.00;61.10;;;;;;5032056;28;20050;-60
2023/07/09 05:00:06;;;;;;;7.38;5.97;;;24.00;61.10;;;;;;5031993;28;20505;-60
2023/07/09 05:02:33;;;;;;;9.95;5.78;;;24.00;61.10;;;;;;5032143;28;20559;-60
2023/07/09 05:04:58;;;;;;;9.10;5.70;;;24.00;61.20;;;;;;5031146;28;20088;-60
2023/07/09 05:07:24;;;;;;;8.63;5.82;;;24.00;61.10;;;;;;5032598;28;20046;-60
2023/07/09 05:09:50;;;;;;;7.97;5.85;;;24.00;61.20;;;;;;5032236;28;20045;-59
2023/07/09 05:12:15;;;;;;;8.15;5.63;;;24.00;61.20;;;;;;5031879;28;20362;-60
2023/07/09 05:14:41;;;;;;;8.02;5.80;;;24.00;61.20;;;;;;5032267;28;20037;-60
2023/07/09 05:17:07;;;;;;;7.35;5.70;;;24.00;61.20;;;;;;5032178;28;20100;-59
2023/07/09 05:19:32;;;;;;;7.10;5.60;;;24.00;61.20;;;;;;5031101;28;20540;-60
2023/07/09 05:21:58;;;;;;;7.63;6.10;;;24.00;61.30;;;;;;5031847;28;20045;-60
2023/07/09 05:24:24;;;;;;;8.55;5.60;;;24.00;61.20;;;;;;5030926;28;20045;-60
2023/07/09 05:26:49;;;;;;;8.38;5.78;;;24.00;61.30;;;;;;5030262;28;20148;-59
2023/07/09 05:29:15;;;;;;;7.72;5.40;;;24.00;61.30;;;;;;5035635;28;20041;-59
2023/07/09 05:31:41;;;;;;;9.05;5.60;;;24.00;61.30;;;;;;5051601;28;20098;-60
2023/07/09 05:34:08;;;;;;;7.43;5.75;;;24.00;61.30;;;;;;5050283;28;20106;-59
2023/07/09 05:36:33;;;;;;;7.75;5.15;;;24.00;61.30;;;;;;5051659;28;20060;-60
2023/07/09 05:38:59;;;;;;;7.63;5.75;;;24.00;61.30;;;;;;5051861;28;20124;-60
2023/07/09 05:41:25;;;;;;;7.63;5.47;;;24.00;61.30;;;;;;5051545;28;20036;-60
2023/07/09 05:43:51;;;;;;;6.60;4.95;;;24.00;61.30;;;;;;5051258;28;20388;-60
2023/07/09 05:46:17;;;;;;;7.57;5.18;;;24.00;61.30;;;;;;5050449;28;20041;-60
2023/07/09 05:48:42;;;;;;;7.53;5.50;;;24.00;61.30;;;;;;5050881;28;20033;-59
2023/07/09 05:51:08;;;;;;;7.47;5.75;;;24.10;61.40;;;;;;5051918;28;20069;-60
2023/07/09 05:53:33;;;;;;;7.07;5.35;;;24.10;61.40;;;;;;5051739;28;20404;-60
2023/07/09 05:55:59;;;;;;;8.57;5.38;;;24.10;61.40;;;;;;5051131;28;20140;-60
2023/07/09 05:58:25;;;;;;;8.35;5.35;;;24.10;61.40;;;;;;5051244;28;20040;-60
2023/07/09 06:00:53;;;;;;;8.18;5.20;;;24.00;61.40;;;;;;5050689;28;20080;-59
2023/07/09 06:03:21;;;;;;;7.07;5.47;;;24.10;61.40;;;;;;5055642;28;20495;-60
2023/07/09 06:05:49;;;;;;;8.00;5.40;;;24.00;61.40;;;;;;5055165;28;20044;-60
2023/07/09 06:08:18;;;;;;;8.27;5.63;;;24.10;61.40;;;;;;5054653;28;20045;-60
2023/07/09 06:10:53;;;;;;;7.68;5.47;;;24.10;61.40;;;;;;5055178;28;20040;-60
2023/07/09 06:13:20;;;;;;;7.30;5.00;;;24.10;61.50;;;;;;5053969;28;20101;-60
2023/07/09 06:15:46;;;;;;;8.95;5.60;;;24.10;61.50;;;;;;5054730;28;20142;-60
2023/07/09 06:18:12;;;;;;;8.55;5.13;;;24.10;61.50;;;;;;5054904;28;20049;-60
2023/07/09 06:20:38;;;;;;;6.78;5.38;;;24.10;61.50;;;;;;5055268;28;20045;-60
2023/07/09 06:23:04;;;;;;;7.38;5.38;;;24.10;62.20;;;;;;5053997;28;20041;-60
2023/07/09 06:25:29;;;;;;;6.85;5.40;;;24.10;61.60;;;;;;5055065;28;20119;-60
2023/07/09 06:27:55;;;;;;;8.25;5.43;;;24.10;61.60;;;;;;5054533;28;20076;-60
2023/07/09 06:30:20;;;;;;;7.68;5.57;;;24.10;61.60;;;;;;5054571;28;20476;-60
2023/07/09 06:32:46;;;;;;;6.45;4.78;;;24.10;61.60;;;;;;5054168;28;20056;-60
2023/07/09 06:35:12;;;;;;;7.05;5.20;;;24.10;61.60;;;;;;5054957;28;20123;-60
2023/07/09 06:37:37;;;;;;;7.20;5.40;;;24.10;61.60;;;;;;5053968;28;20487;-59
2023/07/09 06:40:04;;;;;;;6.65;4.97;;;24.10;61.60;;;;;;5053615;28;20094;-60
2023/07/09 06:42:30;;;;;;;8.40;5.40;;;24.10;61.60;;;;;;5054740;28;20059;-60
2023/07/09 06:44:56;;;;;;;7.15;5.20;;;24.10;62.30;;;;;;5053800;28;20040;-59
2023/07/09 06:47:21;;;;;;;6.85;4.88;;;24.10;61.60;;;;;;5054653;28;20398;-59
2023/07/09 06:49:47;;;;;;;8.32;5.88;;;24.10;61.70;;;;;;5053265;28;20044;-58
2023/07/09 06:52:12;;;;;;;7.38;5.47;;;24.10;61.90;;;;;;5053823;28;20048;-59
2023/07/09 06:54:38;;;;;;;9.68;5.43;;;24.10;62.00;;;;;;5054141;28;20048;-59
2023/07/09 06:57:04;;;;;;;10.05;6.03;;;24.10;62.10;;;;;;5052717;28;20045;-59
2023/07/09 06:59:29;;;;;;;9.15;5.95;;;24.20;62.30;;;;;;5052881;28;20037;-59
2023/07/09 07:01:55;;;;;;;7.72;5.32;;;24.20;62.30;;;;;;5052710;28;20044;-59
2023/07/09 07:04:21;;;;;;;10.00;6.43;;;24.20;62.40;;;;;;5052458;28;20037;-63
2023/07/09 07:06:46;;;;;;;12.18;6.85;;;24.20;62.50;;;;;;5047561;28;20122;-64
2023/07/09 07:09:12;;;;;;;9.50;6.18;;;24.20;62.50;;;;;;5032830;28;20143;-64
2023/07/09 07:11:38;;;;;;;9.98;6.03;;;24.20;62.50;;;;;;5033207;28;20038;-65
2023/07/09 07:14:03;;;;;;;9.68;5.45;;;24.20;62.70;;;;;;5053226;28;20140;-65
2023/07/09 07:16:29;;;;;;;10.43;6.50;;;24.20;62.80;;;;;;5053433;28;20228;-65
2023/07/09 07:18:54;;;;;;;10.95;6.38;;;24.20;62.90;;;;;;5052249;28;20048;-65
2023/07/09 07:21:20;;;;;;;9.43;6.00;;;24.30;63.00;;;;;;5053058;28;20468;-65
2023/07/09 07:23:45;;;;;;;9.52;6.57;;;24.30;63.10;;;;;;5036169;28;20477;-65
2023/07/09 07:26:11;;;;;;;9.50;5.88;;;24.30;63.20;;;;;;5032558;28;20049;-65
2023/07/09 07:28:37;;;;;;;9.88;6.18;;;24.30;63.20;;;;;;5033665;28;20129;-65
2023/07/09 07:31:04;;;;;;;9.73;6.03;;;24.30;63.20;;;;;;5033191;28;20048;-65
2023/07/09 07:33:30;;;;;;;9.55;6.13;;;24.30;63.30;;;;;;5032427;28;20069;-64
2023/07/09 07:35:55;;;;;;;10.07;5.80;;;24.40;63.40;;;;;;5032549;28;20466;-67
2023/07/09 07:38:21;;;;;;;9.60;6.10;;;24.40;63.40;;;;;;5045180;28;20044;-66
2023/07/09 07:40:47;;;;;;;7.88;5.57;;;24.40;63.40;;;;;;5051971;28;20131;-65
2023/07/09 07:43:12;;;;;;;8.20;6.15;;;24.40;63.50;;;;;;5052983;28;20079;-67
2023/07/09 07:45:42;;;;;;;8.02;5.47;;;24.40;63.40;;;;;;5051652;28;20048;-68
2023/07/09 07:48:07;;;;;;;9.15;5.82;;;24.50;63.50;;;;;;5049978;28;20762;-67
2023/07/09 07:50:33;;;;;;;8.75;5.43;;;24.40;63.40;;;;;;5053018;28;20056;-67
2023/07/09 07:52:58;;;;;;;7.97;6.05;;;24.50;63.60;;;;;;5041982;28;20056;-66
2023/07/09 07:55:24;;;;;;;8.68;5.88;;;24.50;63.60;;;;;;5030630;28;20046;-67
2023/07/09 07:57:50;;;;;;;7.97;5.82;;;24.50;63.60;;;;;;5032907;28;20041;-67
2023/07/09 08:00:16;;;;;;;10.63;6.22;;;24.50;63.60;;;;;;5032157;28;20030;-67
2023/07/09 08:02:41;;;;;;;8.27;5.50;;;24.50;63.70;;;;;;5032532;28;20515;-67
2023/07/09 08:05:07;;;;;;;7.78;5.70;;;24.50;63.70;;;;;;5032617;28;20037;-68
2023/07/09 08:07:33;;;;;;;9.23;5.55;;;24.50;63.70;;;;;;5031960;28;20205;-67
2023/07/09 08:09:58;;;;;;;9.10;5.35;;;24.50;63.80;;;;;;5031793;28;20041;-68
2023/07/09 08:12:24;;;;;;;6.75;5.13;;;24.50;63.80;;;;;;5034245;28;20041;-67
2023/07/09 08:14:49;;;;;;;12.40;6.00;;;24.60;63.80;;;;;;5050268;28;20051;-65
2023/07/09 08:17:15;;;;;;;9.45;5.57;;;24.60;63.80;;;;;;5051991;28;20064;-66
2023/07/09 08:19:51;;;;;;;7.88;5.40;;;24.60;63.70;;;;;;5052010;28;20502;-65
2023/07/09 08:22:17;;;;;;;7.22;5.20;;;24.60;63.70;;;;;;5051233;28;20041;-67
2023/07/09 08:24:42;;;;;;;10.43;4.95;;;24.60;63.60;;;;;;5050295;28;20132;-66
2023/07/09 08:27:09;;;;;;;9.27;5.45;;;24.60;64.20;;;;;;5050611;28;20052;-65
2023/07/09 08:29:35;;;;;;;7.72;5.43;;;24.60;63.60;;;;;;5051854;28;20044;-65
2023/07/09 08:32:00;;;;;;;9.20;5.38;;;24.60;63.60;;;;;;5051858;28;20541;-66
2023/07/09 08:34:26;;;;;;;7.88;5.72;;;24.60;63.60;;;;;;5052315;28;20059;-65
2023/07/09 08:36:51;;;;;;;8.05;5.40;;;24.60;63.60;;;;;;5049701;28;20049;-65
2023/07/09 08:39:18;;;;;;;7.47;5.15;;;24.60;63.60;;;;;;5051647;28;20136;-65
2023/07/09 08:42:07;;;;;;;8.18;5.32;;;24.60;63.50;;;;;;5050829;28;20128;-65
2023/07/09 08:44:50;;;;;;;7.10;4.78;;;24.70;63.60;;;;;;5052424;28;20488;-66
2023/07/09 08:47:16;;;;;;;7.50;4.97;;;24.70;63.60;;;;;;5052104;28;20039;-65
2023/07/09 08:49:44;;;;;;;10.55;5.07;;;24.70;63.60;;;;;;5051287;28;20098;-65
2023/07/09 08:52:32;;;;;;;9.80;5.75;;;24.70;63.60;;;;;;5050872;28;20191;-65
2023/07/09 08:54:59;;;;;;;8.80;5.72;;;24.70;63.60;;;;;;5051581;28;20053;-65
2023/07/09 08:57:32;;;;;;;8.85;5.30;;;24.70;63.60;;;;;;5032992;28;20049;-65
2023/07/09 09:00:07;;;;;;;11.15;6.70;;;24.70;63.60;;;;;;5033862;28;20049;-67
2023/07/09 09:02:48;;;;;;;11.55;6.22;;;24.70;64.00;;;;;;5034659;28;20045;-67
2023/07/09 09:05:16;;;;;;;11.80;6.95;;;24.70;64.30;;;;;;5030265;28;20064;-67
2023/07/09 09:07:43;;;;;;;13.85;6.75;;;24.70;64.30;;;;;;5029801;28;20041;-68
2023/07/09 09:10:15;;;;;;;12.73;6.35;;;24.80;64.60;;;;;;5049575;28;20399;-68
2023/07/09 09:12:51;;;;;;;14.45;6.78;;;24.80;64.70;;;;;;5049580;28;20033;-68
2023/07/09 09:15:18;;;;;;;10.68;6.45;;;24.80;64.80;;;;;;5033817;28;20377;-68
2023/07/09 09:17:44;;;;;;;13.10;7.15;;;24.80;64.80;;;;;;5049163;28;20404;-68
2023/07/09 09:20:17;;;;;;;13.50;6.97;;;24.80;64.90;;;;;;5051513;28;20045;-68
2023/07/09 09:23:10;;;;;;;14.98;6.57;;;24.80;65.00;;;;;;5033535;28;20060;-68
2023/07/09 09:25:38;;;;;;;12.05;6.60;;;24.80;65.00;;;;;;5032950;28;20056;-68
2023/07/09 09:28:04;;;;;;;14.02;6.70;;;24.80;65.10;;;;;;5041725;28;20034;-67
2023/07/09 09:30:30;;;;;;;13.63;6.57;;;24.80;65.20;;;;;;5031810;28;20047;-68
2023/07/09 09:32:57;;;;;;;10.90;6.25;;;24.80;65.20;;;;;;5036246;28;20059;-68
2023/07/09 09:35:28;;;;;;;13.65;6.10;;;24.80;65.20;;;;;;5052147;28;20424;-69
2023/07/09 09:37:55;;;;;;;12.63;6.53;;;24.80;65.30;;;;;;5039998;28;20046;-69
2023/07/09 09:40:23;;;;;;;11.80;6.05;;;24.90;65.30;;;;;;5044091;28;20044;-65
2023/07/09 09:42:54;;;;;;;11.70;6.45;;;24.90;65.40;;;;;;5051777;28;20083;-65
2023/07/09 09:45:24;;;;;;;12.38;6.20;;;24.90;65.40;;;;;;5054561;28;20037;-66
2023/07/09 09:47:49;;;;;;;10.80;5.90;;;24.90;65.30;;;;;;5053004;28;20045;-68
2023/07/09 09:50:16;;;;;;;14.82;6.47;;;24.90;65.30;;;;;;5054158;28;20091;-66
2023/07/09 09:52:42;;;;;;;9.00;5.45;;;24.90;65.50;;;;;;5042483;28;20044;-65
2023/07/09 09:55:22;;;;;;;13.25;6.50;;;24.90;65.60;;;;;;5042388;28;20435;-67
2023/07/09 09:57:50;;;;;;;13.70;5.93;;;24.90;65.60;;;;;;5026904;28;20484;-68
2023/07/09 10:00:16;;;;;;;13.80;6.63;;;25.00;65.60;;;;;;5045043;28;20184;-66
2023/07/09 10:02:42;;;;;;;10.60;6.05;;;25.00;65.70;;;;;;5043662;28;20056;-67
2023/07/09 10:05:48;;;;;;;10.38;5.75;;;25.00;65.70;;;;;;5045657;28;20040;-66
2023/07/09 10:08:43;;;;;;;12.23;6.20;;;25.00;65.80;;;;;;5043215;28;20049;-66
2023/07/09 10:11:39;;;;;;;10.40;6.38;;;25.00;65.70;;;;;;5042187;28;20057;-66
2023/07/09 10:14:28;;;;;;;10.07;5.90;;;25.00;65.60;;;;;;5021920;28;20037;-66
2023/07/09 10:17:06;;;;;;;9.35;5.88;;;25.00;65.50;;;;;;5045200;28;20049;-65
2023/07/09 10:19:48;;;;;;;;;;;25.10;65.60;;;;;;5031325;28;20086;-65
2023/07/09 10:22:20;;;;;;;12.43;5.80;;;25.00;65.50;;;;;;5047207;28;19921;-65
2023/07/09 10:25:21;;;;;;;11.88;6.07;;;25.10;65.50;;;;;;5046898;28;20052;-64
2023/07/09 10:28:23;;;;;;;8.95;5.30;;;25.10;65.50;;;;;;4971442;28;20039;-64
2023/07/09 10:31:00;;;;;;;12.50;5.90;;;25.10;65.50;;;;;;5042566;28;20043;-64
2023/07/09 10:33:54;;;;;;;9.57;6.05;;;25.10;65.40;;;;;;5038897;28;20135;-64
2023/07/09 10:36:50;;;;;;;8.35;5.53;;;25.10;65.30;;;;;;5031990;28;20499;-65
2023/07/09 10:39:25;;;;;;;9.73;6.20;;;25.10;65.20;;;;;;5033622;28;20456;-65
2023/07/09 10:41:51;;;;;;;9.38;5.65;;;25.20;65.40;;;;;;5032011;28;20111;-65
2023/07/09 10:44:36;;;;;;;10.85;6.40;;;25.10;65.40;;;;;;5015681;28;20061;-65
2023/07/09 10:47:05;;;;;;;9.88;5.97;;;25.20;65.60;;;;;;5019372;28;20033;-65
2023/07/09 10:49:37;;;;;;;13.00;6.15;;;25.20;65.50;;;;;;5052148;28;20063;-65
2023/07/09 10:52:25;;;;;;;9.80;5.40;;;25.20;65.50;;;;;;5051621;28;20095;-65
2023/07/09 10:55:17;;;;;;;9.52;5.78;;;25.20;65.30;;;;;;5051906;28;20049;-65
2023/07/09 10:57:54;;;;;;;12.23;6.53;;;25.20;65.30;;;;;;5051006;28;20124;-65
2023/07/09 11:00:20;;;;;;;9.00;5.70;;;25.20;65.30;;;;;;5053396;28;20087;-64
2023/07/09 11:02:47;;;;;;;10.65;5.88;;;25.20;65.30;;;;;;5051973;28;20515;-64
2023/07/09 11:05:13;;;;;;;9.10;6.03;;;25.20;65.30;;;;;;5051976;28;20036;-64
2023/07/09 11:07:45;;;;;;;8.60;5.72;;;25.20;65.30;;;;;;5053696;28;20504;-64
2023/07/09 11:10:20;;;;;;;10.07;5.53;;;25.30;65.30;;;;;;5034497;28;20048;-64
2023/07/09 11:13:03;;;;;;;10.32;5.57;;;25.20;65.20;;;;;;5053428;28;20045;-63
2023/07/09 11:15:35;;;;;;;7.45;5.13;;;25.20;65.10;;;;;;5051387;28;20442;-65
2023/07/09 11:18:01;;;;;;;10.38;5.80;;;25.20;65.10;;;;;;5030898;28;20037;-64
2023/07/09 11:20:41;;;;;;;9.32;5.70;;;25.20;65.10;;;;;;5027739;28;20067;-65
2023/07/09 11:23:22;;;;;;;8.68;5.00;;;25.30;65.10;;;;;;5052179;28;20075;-66
2023/07/09 11:26:14;;;;;;;10.82;4.82;;;25.20;64.70;;;;;;5044542;28;20174;-59
2023/07/09 11:28:41;;;;;;;9.85;5.30;;;25.20;64.30;;;;;;5049801;28;20045;-59
2023/07/09 11:31:23;;;;;;;11.32;5.05;;;25.20;64.00;;;;;;5036093;28;20045;-61
2023/07/09 11:33:58;;;;;;;8.45;5.38;;;25.20;63.30;;;;;;5036113;28;20185;-58
2023/07/09 11:36:26;;;;;;;7.68;4.68;;;25.20;63.10;;;;;;5044509;28;20057;-58
2023/07/09 11:38:52;;;;;;;7.78;4.22;;;25.20;62.70;;;;;;5050897;28;20051;-61
2023/07/09 11:41:29;;;;;;;8.43;4.18;;;25.20;62.30;;;;;;5051468;28;20124;-60
2023/07/09 11:44:03;;;;;;;7.88;4.40;;;25.20;61.70;;;;;;5036091;28;20428;-60
2023/07/09 11:46:29;;;;;;;10.38;4.53;;;25.20;61.30;;;;;;5032448;28;20037;-60
2023/07/09 11:48:55;;;;;;;9.60;4.57;;;25.20;61.10;;;;;;5049070;28;20071;-60
2023/07/09 11:51:23;;;;;;;6.07;4.15;;;25.20;60.60;;;;;;5051737;28;20523;-60
2023/07/09 11:53:51;;;;;;;8.52;4.32;;;25.20;60.10;;;;;;5051614;28;20051;-60
2023/07/09 11:56:20;;;;;;;;;;;25.20;59.80;;;;;;5052154;28;20068;-59
2023/07/09 11:58:54;;;;;;;9.13;4.22;;;25.20;59.60;;;;;;5051770;28;19927;-59
2023/07/09 12:01:26;;;;;;;7.63;3.85;;;25.20;59.40;;;;;;5052107;28;20041;-59
2023/07/09 12:03:52;;;;;;;7.38;3.97;;;25.10;59.00;;;;;;5052326;28;20120;-59
2023/07/09 12:06:28;;;;;;;7.57;4.30;;;25.20;58.80;;;;;;5052480;28;20112;-59
2023/07/09 12:08:54;;;;;;;7.95;3.80;;;25.20;58.20;;;;;;5047609;28;20029;-59
2023/07/09 12:11:32;;;;;;;7.60;3.90;;;25.20;58.10;;;;;;5032381;28;20581;-59
2023/07/09 12:14:24;;;;;;;5.80;3.55;;;25.10;57.80;;;;;;5031253;28;20362;-59
2023/07/09 12:16:51;;;;;;;5.70;3.70;;;25.20;57.60;;;;;;5027991;28;20493;-59
2023/07/09 12:19:18;;;;;;;7.22;3.55;;;25.10;57.40;;;;;;5032649;28;20470;-59
2023/07/09 12:21:46;;;;;;;5.63;3.38;;;25.20;57.20;;;;;;5031310;28;20120;-60
2023/07/09 12:24:26;;;;;;;6.82;3.42;;;25.20;57.20;;;;;;5032540;28;20049;-59
2023/07/09 12:27:01;;;;;;;5.38;3.53;;;25.20;57.00;;;;;;5031974;28;20041;-60
2023/07/09 12:29:34;;;;;;;9.02;3.95;;;25.20;56.90;;;;;;5031464;28;20497;-60
2023/07/09 12:32:02;;;;;;;6.10;3.60;;;25.20;56.90;;;;;;5032042;28;20045;-65
2023/07/09 12:34:30;;;;;;;6.35;3.30;;;25.20;56.80;;;;;;5048369;28;20048;-59
2023/07/09 12:36:56;;;;;;;6.10;3.78;;;25.20;56.80;;;;;;5050273;28;20049;-59
2023/07/09 12:39:27;;;;;;;7.07;3.70;;;25.20;57.50;;;;;;5033479;28;20568;-59
2023/07/09 12:41:56;;;;;;;5.95;3.10;;;25.20;57.50;;;;;;5029859;28;20549;-59
2023/07/09 12:44:22;;;;;;;6.57;3.72;;;25.20;57.80;;;;;;5047322;28;20124;-59
2023/07/09 12:46:49;;;;;;;6.90;3.70;;;25.20;57.50;;;;;;5050736;28;20128;-59
2023/07/09 12:49:28;;;;;;;4.95;3.15;;;25.20;57.40;;;;;;5034025;28;20060;-59
2023/07/09 12:51:58;;;;;;;6.38;3.42;;;25.20;57.00;;;;;;5031895;28;20056;-59
2023/07/09 12:54:24;;;;;;;6.93;4.05;;;25.20;56.90;;;;;;5047390;28;20128;-60